Time;durP1;ratioP1;P1;durP2;ratioP2;P2;SDS_P1;SDS_P2;PMS_P1;PMS_P2;Temp;Humidity;BMP_temperature;BMP_pressure;BME280_temperature;BME280_humidity;BME280_pressure;Samples;Min_cycle;Max_cycle;Signal;HPM_P1;HPM_P2
2022/09/24 00:00:15;;;;;;;;;11.75;10.50;;;;;18.03;48.01;100662.06;5094142;27;45344;-39
2022/09/24 00:02:41;;;;;;;;;12.00;9.00;;;;;18.01;48.03;100660.44;5101788;27;45648;-39
2022/09/24 00:05:06;;;;;;;;;12.50;9.00;;;;;17.96;48.24;100658.06;5107216;27;45633;-39
2022/09/24 00:07:32;;;;;;;;;14.25;11.50;;;;;17.96;48.71;100662.53;5093101;27;45512;-39
2022/09/24 00:09:57;;;;;;;;;14.75;11.00;;;;;17.95;48.43;100661.66;5123478;27;62318;-43
2022/09/24 00:12:23;;;;;;;;;16.50;11.00;;;;;17.94;48.01;100667.91;5098398;27;45312;-40
2022/09/24 00:14:49;;;;;;;;;10.75;10.75;;;;;17.95;48.58;100669.59;5092054;27;46084;-39
2022/09/24 00:17:14;;;;;;;;;13.75;11.00;;;;;17.96;48.35;100660.72;5097079;27;45455;-39
2022/09/24 00:19:40;;;;;;;;;10.75;10.25;;;;;17.97;48.71;100665.06;5078332;27;45641;-38
2022/09/24 00:22:06;;;;;;;;;11.50;11.00;;;;;17.98;48.57;100658.81;5100319;27;45385;-38
2022/09/24 00:27:15;;;;;;;;;10.50;9.75;;;;;18.00;48.38;100659.56;5095859;27;45852;-38
2022/09/24 00:29:40;;;;;;;;;22.50;21.00;;;;;17.98;48.24;100664.13;5101439;27;45343;-38
2022/09/24 00:32:06;;;;;;;;;19.00;13.75;;;;;17.98;48.40;100656.16;5102589;27;45261;-38
2022/09/24 00:34:32;;;;;;;;;14.00;10.00;;;;;17.98;48.42;100657.97;5099996;27;46039;-37
2022/09/24 00:36:58;;;;;;;;;15.00;10.75;;;;;17.97;48.65;100650.97;5101177;27;45446;-38
2022/09/24 00:39:23;;;;;;;;;11.50;10.75;;;;;17.96;48.27;100649.28;5094603;27;45552;-38
2022/09/24 00:41:48;;;;;;;;;11.50;9.50;;;;;17.94;48.58;100652.00;5092183;27;45253;-39
2022/09/24 00:44:42;;;;;;;;;13.75;11.00;;;;;17.93;48.67;100649.44;5098795;27;46167;-39
2022/09/24 00:47:22;;;;;;;;;9.50;8.50;;;;;17.91;48.58;100652.19;5115036;27;45357;-39
2022/09/24 00:49:48;;;;;;;;;11.50;10.25;;;;;17.90;48.69;100658.44;5090958;27;45535;-38
2022/09/24 00:52:14;;;;;;;;;14.00;10.00;;;;;17.87;48.93;100661.25;5107772;27;45324;-38
2022/09/24 00:54:43;;;;;;;;;13.00;10.75;;;;;17.87;49.12;100655.97;5093632;27;46820;-38
2022/09/24 00:57:08;;;;;;;;;10.50;10.00;;;;;17.85;49.30;100657.81;5092397;27;45352;-38
2022/09/24 00:59:34;;;;;;;;;12.50;10.75;;;;;17.83;49.27;100651.78;5090766;27;65974;-38
2022/09/24 01:02:00;;;;;;;;;10.50;9.50;;;;;17.84;48.92;100651.66;5095411;27;45691;-38
2022/09/24 01:04:27;;;;;;;;;10.75;9.50;;;;;17.84;49.53;100643.72;5094069;27;46066;-38
2022/09/24 01:06:53;;;;;;;;;10.75;10.75;;;;;17.82;49.37;100647.41;5091433;27;45454;-38
2022/09/24 01:09:21;;;;;;;;;13.50;8.00;;;;;17.82;49.53;100647.41;5096692;27;45245;-38
2022/09/24 01:12:19;;;;;;;;;11.75;8.75;;;;;17.83;49.77;100641.19;5084008;27;45444;-38
2022/09/24 01:15:23;;;;;;;;;11.25;9.50;;;;;17.81;50.08;100645.69;5093819;27;45307;-38
2022/09/24 01:17:56;;;;;;;;;11.00;9.00;;;;;17.78;50.42;100643.25;5099894;27;45460;-39
2022/09/24 01:20:51;;;;;;;;;16.75;12.50;;;;;17.74;50.56;100639.94;5098939;27;45417;-39
2022/09/24 01:23:44;;;;;;;;;14.50;10.25;;;;;17.72;51.06;100649.72;5095566;27;45329;-38
2022/09/24 01:26:45;;;;;;;;;14.75;11.00;;;;;17.72;51.52;100646.22;5088356;27;46926;-38
2022/09/24 01:29:40;;;;;;;;;14.25;12.25;;;;;17.70;51.62;100634.88;5087629;27;45340;-38
2022/09/24 01:32:24;;;;;;;;;11.75;10.50;;;;;17.69;51.61;100643.75;5101403;27;45182;-38
2022/09/24 01:34:54;;;;;;;;;13.00;11.00;;;;;17.65;51.40;100638.66;5096229;27;45535;-39
2022/09/24 01:37:21;;;;;;;;;10.50;9.00;;;;;17.64;51.44;100634.31;5098337;27;47177;-38
2022/09/24 01:39:47;;;;;;;;;11.75;10.25;;;;;17.61;51.92;100623.03;5099966;27;45752;-38
2022/09/24 01:42:14;;;;;;;;;13.50;11.25;;;;;17.61;51.73;100623.03;5094696;27;62910;-39
2022/09/24 01:44:43;;;;;;;;;13.00;11.25;;;;;17.60;51.88;100623.97;5090727;27;45763;-38
2022/09/24 01:47:11;;;;;;;;;9.00;7.00;;;;;17.60;52.53;100629.25;5090468;27;46216;-38
2022/09/24 01:49:36;;;;;;;;;13.25;11.25;;;;;17.56;52.27;100623.31;5099688;27;45824;-38
2022/09/24 01:52:04;;;;;;;;;14.25;11.00;;;;;17.54;52.68;100619.06;5089495;27;68192;-38
2022/09/24 01:54:35;;;;;;;;;12.75;12.00;;;;;17.53;52.76;100619.97;5080253;27;45485;-38
2022/09/24 01:57:08;;;;;;;;;12.00;9.75;;;;;17.51;52.57;100625.38;5082926;27;46605;-38
2022/09/24 01:59:39;;;;;;;;;9.50;9.50;;;;;17.47;51.93;100621.19;5090288;27;45787;-38
2022/09/24 02:02:11;;;;;;;;;10.50;8.50;;;;;17.43;52.90;100612.59;5098230;27;45254;-37
2022/09/24 02:04:41;;;;;;;;;11.75;8.75;;;;;17.41;52.87;100611.81;5091252;27;45391;-38
2022/09/24 02:07:13;;;;;;;;;12.00;9.50;;;;;17.39;52.77;100610.22;5094075;27;46496;-37
2022/09/24 02:09:41;;;;;;;;;11.50;9.50;;;;;17.37;53.17;100607.66;5093094;27;45223;-37
2022/09/24 02:12:20;;;;;;;;;10.00;9.00;;;;;17.36;53.51;100600.66;5090992;27;45380;-38
2022/09/24 02:14:56;;;;;;;;;10.00;9.00;;;;;17.35;53.05;100596.31;5133072;27;45511;-37
2022/09/24 02:17:24;;;;;;;;;9.75;8.25;;;;;17.35;53.32;100591.03;5095990;27;46223;-37
2022/09/24 02:19:51;;;;;;;;;14.25;10.00;;;;;17.36;53.56;100591.88;5132598;27;45435;-38
2022/09/24 02:22:17;;;;;;;;;10.50;10.50;;;;;17.36;54.01;100591.88;5097317;27;64042;-38
2022/09/24 02:24:46;;;;;;;;;11.75;10.00;;;;;17.36;54.25;100586.59;5097976;27;45303;-38
2022/09/24 02:27:12;;;;;;;;;14.00;10.25;;;;;17.36;54.13;100587.44;5091332;27;45530;-38
2022/09/24 02:29:38;;;;;;;;;12.50;10.00;;;;;17.35;54.22;100579.56;5096150;27;45407;-38
2022/09/24 02:32:05;;;;;;;;;12.00;9.50;;;;;17.35;54.45;100577.81;5097238;27;45548;-38
2022/09/24 02:34:36;;;;;;;;;13.25;9.25;;;;;17.37;54.32;100582.97;5098495;27;45891;-38
2022/09/24 02:37:07;;;;;;;;;11.50;11.50;;;;;17.36;54.59;100576.84;5098980;27;46346;-38
2022/09/24 02:39:32;;;;;;;;;11.75;10.00;;;;;17.36;54.72;100581.28;5094358;27;45349;-38
2022/09/24 02:41:59;;;;;;;;;12.50;11.50;;;;;17.35;54.85;100576.94;5093351;27;59906;-39
2022/09/24 02:44:25;;;;;;;;;13.75;10.75;;;;;17.34;54.58;100569.94;5097056;27;45444;-38
2022/09/24 02:46:51;;;;;;;;;19.00;13.00;;;;;17.33;54.73;100577.00;5091902;27;47260;-38
2022/09/24 02:49:17;;;;;;;;;14.75;12.75;;;;;17.33;54.90;100577.00;5098207;27;56776;-37
2022/09/24 02:51:43;;;;;;;;;14.25;12.75;;;;;17.32;54.99;100574.50;5097826;27;45325;-38
2022/09/24 02:54:09;;;;;;;;;14.50;11.00;;;;;17.32;55.02;100570.03;5097162;27;47765;-38
2022/09/24 02:56:34;;;;;;;;;11.00;10.00;;;;;17.31;54.80;100570.97;5090308;27;45230;-37
2022/09/24 02:59:01;;;;;;;;;11.50;11.00;;;;;17.30;54.46;100576.34;5094623;27;45294;-38
2022/09/24 03:01:28;;;;;;;;;12.75;10.50;;;;;17.27;54.99;100570.28;5100163;27;45375;-38
2022/09/24 03:03:53;;;;;;;;;12.75;10.50;;;;;17.26;55.14;100570.38;5089289;27;45332;-38
2022/09/24 03:06:19;;;;;;;;;14.75;11.00;;;;;17.26;55.08;100570.38;5097198;27;46984;-38
2022/09/24 03:08:44;;;;;;;;;18.00;10.50;;;;;17.25;55.41;100561.59;5094454;27;45349;-38
2022/09/24 03:11:10;;;;;;;;;13.50;13.00;;;;;17.24;54.76;100564.31;5085658;27;59464;-38
2022/09/24 03:13:37;;;;;;;;;16.00;12.00;;;;;17.22;54.90;100561.75;5094017;27;45382;-39
2022/09/24 03:16:03;;;;;;;;;17.00;15.25;;;;;17.22;55.28;100559.13;5089300;27;45693;-36
2022/09/24 03:18:28;;;;;;;;;22.00;14.75;;;;;17.22;55.47;100560.94;5099802;27;45464;-37
2022/09/24 03:20:55;;;;;;;;;13.75;13.00;;;;;17.21;55.34;100553.91;5095911;27;45333;-39
2022/09/24 03:23:21;;;;;;;;;16.75;14.00;;;;;17.21;55.95;100554.78;5086929;27;45504;-39
2022/09/24 03:25:46;;;;;;;;;13.75;12.25;;;;;17.20;55.59;100554.88;5088435;27;46489;-39
2022/09/24 03:28:12;;;;;;;;;14.25;12.50;;;;;17.19;55.69;100555.81;5091441;27;70530;-39
2022/09/24 03:33:21;;;;;;;;;17.50;11.25;;;;;17.16;54.94;100553.34;5086223;27;45213;-39
2022/09/24 03:35:46;;;;;;;;;12.25;10.00;;;;;17.12;55.59;100547.38;5097571;27;69495;-39
2022/09/24 03:38:12;;;;;;;;;14.00;12.00;;;;;17.09;55.44;100547.56;5099823;27;45249;-39
2022/09/24 03:40:37;;;;;;;;;11.75;10.25;;;;;17.02;54.98;100536.47;5101038;27;45374;-39
2022/09/24 03:43:02;;;;;;;;;12.25;11.00;;;;;17.05;55.38;100552.19;5089301;27;62121;-39
2022/09/24 03:45:28;;;;;;;;;11.75;10.00;;;;;17.04;55.37;100545.16;5089443;27;62990;-39
2022/09/24 03:47:54;;;;;;;;;12.50;8.75;;;;;17.05;55.48;100548.66;5093013;27;45174;-39
2022/09/24 03:50:19;;;;;;;;;11.50;11.00;;;;;17.06;55.77;100550.38;5093848;27;45420;-39
2022/09/24 03:52:44;;;;;;;;;11.75;9.00;;;;;17.04;55.49;100545.16;5091837;27;69332;-39
2022/09/24 03:55:10;;;;;;;;;13.00;10.75;;;;;17.03;55.94;100538.19;5085624;27;66051;-39
2022/09/24 03:57:35;;;;;;;;;12.25;9.50;;;;;17.02;55.17;100541.75;5093394;27;68401;-39
2022/09/24 04:00:01;;;;;;;;;10.50;9.50;;;;;17.01;55.40;100541.84;5091937;27;54016;-39
2022/09/24 04:02:26;;;;;;;;;12.25;9.00;;;;;17.01;55.11;100539.22;5098321;27;73382;-39
2022/09/24 04:04:51;;;;;;;;;12.00;9.25;;;;;17.01;54.94;100539.22;5087497;27;73040;-39
2022/09/24 04:07:17;;;;;;;;;11.50;9.00;;;;;16.99;55.14;100535.81;5084027;27;71221;-39
2022/09/24 04:09:42;;;;;;;;;14.00;10.75;;;;;16.97;54.84;100532.41;5087038;27;45323;-39
2022/09/24 04:12:08;;;;;;;;;10.50;10.25;;;;;16.95;55.20;100527.19;5083757;27;68648;-39
2022/09/24 04:14:33;;;;;;;;;11.50;10.00;;;;;16.94;55.36;100537.84;5084577;27;46305;-39
2022/09/24 04:16:58;;;;;;;;;9.50;9.00;;;;;16.92;55.18;100527.38;5092932;27;68714;-39
2022/09/24 04:19:25;;;;;;;;;10.00;9.00;;;;;16.92;55.29;100537.94;5095045;27;66390;-39
2022/09/24 04:21:51;;;;;;;;;10.25;9.00;;;;;16.93;55.19;100531.72;5089070;27;45518;-38
2022/09/24 04:24:16;;;;;;;;;10.00;10.00;;;;;16.95;55.24;100535.13;5090908;27;45200;-38
2022/09/24 04:26:42;;;;;;;;;13.25;11.50;;;;;16.95;55.44;100524.56;5083359;27;54737;-38
2022/09/24 04:29:07;;;;;;;;;12.75;10.25;;;;;16.96;55.14;100533.31;5093398;27;55190;-38
2022/09/24 04:31:32;;;;;;;;;10.50;9.00;;;;;16.94;55.38;100538.69;5096305;27;45233;-38
2022/09/24 04:33:58;;;;;;;;;15.50;11.50;;;;;16.95;55.37;100536.94;5084950;27;69042;-38
2022/09/24 04:36:23;;;;;;;;;9.75;8.50;;;;;16.91;55.06;100536.25;5098703;27;45266;-38
2022/09/24 04:38:49;;;;;;;;;14.75;10.25;;;;;16.88;55.38;100531.97;5092261;27;45810;-38
2022/09/24 04:41:17;;;;;;;;;13.50;9.25;;;;;16.86;55.06;100538.31;5098711;27;46117;-38
2022/09/24 04:43:45;;;;;;;;;11.50;11.00;;;;;16.83;55.38;100538.44;5093950;27;46242;-38
2022/09/24 04:46:11;;;;;;;;;13.50;9.25;;;;;16.82;55.02;100532.31;5095457;27;45268;-38
2022/09/24 04:48:37;;;;;;;;;12.00;12.00;;;;;16.82;55.59;100536.72;5099057;27;45445;-38
2022/09/24 04:51:05;;;;;;;;;17.00;11.75;;;;;16.82;55.62;100534.06;5100013;27;45469;-38
2022/09/24 04:53:31;;;;;;;;;12.25;10.00;;;;;16.85;55.65;100540.06;5098753;27;46476;-39
2022/09/24 04:55:57;;;;;;;;;11.75;10.00;;;;;16.86;55.41;100535.66;5096570;27;45405;-38
2022/09/24 04:58:23;;;;;;;;;11.00;8.25;;;;;16.88;55.43;100539.91;5098899;27;45242;-38
2022/09/24 05:00:50;;;;;;;;;11.75;10.25;;;;;16.89;55.33;100535.47;5090932;27;66911;-38
2022/09/24 05:03:15;;;;;;;;;13.00;10.00;;;;;16.92;55.54;100540.56;5098877;27;47375;-38
2022/09/24 05:05:41;;;;;;;;;8.50;7.50;;;;;16.92;55.45;100537.94;5101214;27;45398;-38
2022/09/24 05:08:06;;;;;;;;;12.00;11.50;;;;;16.94;55.29;100537.84;5102021;27;45324;-39
2022/09/24 05:10:32;;;;;;;;;15.75;10.00;;;;;16.93;55.19;100538.78;5093272;27;67084;-38
2022/09/24 05:12:57;;;;;;;;;11.00;9.25;;;;;16.93;55.73;100547.59;5091412;27;45320;-38
2022/09/24 05:15:23;;;;;;;;;11.25;9.00;;;;;16.92;55.24;100543.22;5089261;27;45432;-39
2022/09/24 05:17:48;;;;;;;;;12.50;11.25;;;;;16.90;55.00;100550.38;5100345;27;46126;-38
2022/09/24 05:20:15;;;;;;;;;9.75;8.75;;;;;16.88;55.30;100549.63;5094759;27;45405;-38
2022/09/24 05:22:42;;;;;;;;;11.00;11.00;;;;;16.87;55.14;100553.19;5092154;27;46188;-38
2022/09/24 05:25:08;;;;;;;;;10.50;8.75;;;;;16.85;55.13;100555.94;5098651;27;45261;-38
2022/09/24 05:27:34;;;;;;;;;12.50;10.75;;;;;16.84;55.20;100559.53;5089467;27;45406;-39
2022/09/24 05:30:00;;;;;;;;;17.25;12.00;;;;;16.82;55.42;100553.44;5090932;27;45234;-38
2022/09/24 05:32:26;;;;;;;;;9.75;9.50;;;;;16.82;55.37;100561.38;5076115;27;46400;-39
2022/09/24 05:34:52;;;;;;;;;11.50;9.50;;;;;16.82;55.74;100564.00;5088979;27;45228;-38
2022/09/24 05:37:17;;;;;;;;;14.00;10.25;;;;;16.82;55.83;100563.13;5088550;27;45231;-39
2022/09/24 05:39:43;;;;;;;;;12.75;10.25;;;;;16.83;55.96;100570.16;5098979;27;45416;-38
2022/09/24 05:42:12;;;;;;;;;9.75;9.50;;;;;16.82;55.70;100566.66;5088276;27;47058;-39
2022/09/24 05:44:38;;;;;;;;;11.00;9.75;;;;;16.83;55.33;100562.22;5094691;27;45340;-38
2022/09/24 05:47:03;;;;;;;;;9.25;9.25;;;;;16.83;55.97;100565.72;5098206;27;45525;-38
2022/09/24 05:49:28;;;;;;;;;9.25;9.00;;;;;16.84;55.69;100564.81;5095705;27;66340;-38
2022/09/24 05:51:54;;;;;;;;;13.75;11.25;;;;;16.87;55.29;100564.66;5090077;27;66367;-38
2022/09/24 05:54:19;;;;;;;;;12.00;10.00;;;;;16.87;55.49;100564.66;5100112;27;46045;-38
2022/09/24 05:56:45;;;;;;;;;11.50;11.00;;;;;16.88;55.22;100561.03;5093721;27;45238;-38
2022/09/24 05:59:11;;;;;;;;;15.75;9.25;;;;;16.88;55.18;100565.50;5096608;27;45339;-38
2022/09/24 06:01:37;;;;;;;;;12.50;10.25;;;;;16.89;54.86;100565.41;5099643;27;46878;-38
2022/09/24 06:04:02;;;;;;;;;13.75;10.50;;;;;16.88;55.32;100570.78;5093866;27;45358;-39
2022/09/24 06:06:28;;;;;;;;;13.00;10.50;;;;;16.87;54.96;100575.22;5096052;27;45230;-38
2022/09/24 06:08:54;;;;;;;;;12.25;9.75;;;;;16.84;55.28;100569.25;5089190;27;60052;-38
2022/09/24 06:11:22;;;;;;;;;12.25;9.75;;;;;16.84;55.52;100577.19;5099223;27;45259;-38
2022/09/24 06:13:49;;;;;;;;;11.50;10.00;;;;;16.85;55.37;100577.06;5096387;27;45326;-38
2022/09/24 06:16:15;;;;;;;;;10.25;9.50;;;;;16.88;55.92;100579.56;5086755;27;45436;-38
2022/09/24 06:18:41;;;;;;;;;14.75;12.50;;;;;16.92;56.06;100580.22;5100213;27;66017;-39
2022/09/24 06:21:10;;;;;;;;;16.50;12.00;;;;;16.93;55.79;100576.66;5086295;27;46371;-38
2022/09/24 06:23:36;;;;;;;;;10.00;10.00;;;;;16.94;55.87;100581.00;5095185;27;45472;-39
2022/09/24 06:26:04;;;;;;;;;11.25;9.25;;;;;16.96;55.56;100580.91;5094363;27;45276;-38
2022/09/24 06:28:29;;;;;;;;;7.25;7.25;;;;;16.94;55.51;100583.63;5091640;27;45441;-38
2022/09/24 06:30:55;;;;;;;;;17.00;11.75;;;;;16.94;55.93;100583.63;5096419;27;46250;-38
2022/09/24 06:33:22;;;;;;;;;12.00;10.00;;;;;16.92;55.09;100587.31;5097642;27;58491;-39
2022/09/24 06:35:47;;;;;;;;;11.00;9.75;;;;;16.89;55.82;100593.59;5087976;27;45347;-38
2022/09/24 06:38:15;;;;;;;;;16.00;11.75;;;;;16.89;55.83;100590.97;5089999;27;45233;-38
2022/09/24 06:40:41;;;;;;;;;10.75;10.50;;;;;16.91;55.20;100594.41;5097665;27;46309;-39
2022/09/24 06:43:09;;;;;;;;;12.75;9.00;;;;;16.90;55.85;100603.25;5081708;27;45770;-39
2022/09/24 06:45:35;;;;;;;;;13.25;12.50;;;;;16.89;55.66;100599.78;5099198;27;45334;-39
2022/09/24 06:48:02;;;;;;;;;12.50;10.50;;;;;16.92;55.83;100603.19;5093611;27;45396;-39
2022/09/24 06:50:29;;;;;;;;;12.50;10.00;;;;;16.93;56.33;100596.94;5095215;27;46616;-38
2022/09/24 06:52:55;;;;;;;;;11.25;11.25;;;;;16.95;56.25;100603.00;5080344;27;45428;-39
2022/09/24 06:55:21;;;;;;;;;14.00;11.25;;;;;16.98;55.93;100600.19;5097796;27;45432;-38
2022/09/24 06:57:47;;;;;;;;;10.25;8.00;;;;;16.97;56.24;100607.25;5099043;27;45331;-38
2022/09/24 07:00:13;;;;;;;;;18.25;12.50;;;;;16.96;56.12;100610.84;5084265;27;45739;-37
2022/09/24 07:02:39;;;;;;;;;15.50;11.75;;;;;16.95;55.87;100601.22;5098063;27;45326;-38
2022/09/24 07:05:05;;;;;;;;;15.50;11.00;;;;;16.95;56.06;100614.44;5093785;27;45526;-38
2022/09/24 07:07:33;;;;;;;;;13.50;11.25;;;;;16.97;56.30;100611.72;5098141;27;45459;-38
2022/09/24 07:10:09;;;;;;;;;11.50;11.00;;;;;16.98;56.57;100605.47;5099469;27;46352;-38
2022/09/24 07:12:35;;;;;;;;;10.50;10.50;;;;;16.99;56.17;100610.66;5085039;27;45912;-40
2022/09/24 07:15:01;;;;;;;;;10.50;9.00;;;;;17.01;56.55;100606.13;5100145;27;45449;-39
2022/09/24 07:17:27;;;;;;;;;13.50;10.00;;;;;17.03;56.50;100612.22;5086873;27;45470;-39
2022/09/24 07:19:53;;;;;;;;;17.50;11.50;;;;;17.07;56.18;100610.25;5091225;27;45354;-38
2022/09/24 07:22:18;;;;;;;;;13.00;10.50;;;;;17.10;56.48;100610.06;5093967;27;45355;-38
2022/09/24 07:24:44;;;;;;;;;16.00;9.00;;;;;17.12;56.54;100609.97;5094481;27;45441;-38
2022/09/24 07:27:10;;;;;;;;;10.50;9.75;;;;;17.15;56.45;100613.31;5094653;27;45220;-38
2022/09/24 07:29:36;;;;;;;;;14.00;11.25;;;;;17.14;56.52;100611.63;5088456;27;46125;-38
2022/09/24 07:32:02;;;;;;;;;14.00;10.00;;;;;17.15;56.38;100617.75;5098049;27;45274;-38
2022/09/24 07:34:27;;;;;;;;;11.50;9.75;;;;;17.16;56.66;100620.31;5087890;27;45263;-38
2022/09/24 07:36:54;;;;;;;;;12.25;8.25;;;;;17.18;57.03;100620.22;5094174;27;45250;-39
2022/09/24 07:39:20;;;;;;;;;12.00;8.25;;;;;17.18;56.80;100629.00;5088637;27;46967;-44
2022/09/24 07:41:45;;;;;;;;;45.75;33.75;;;;;17.18;56.83;100623.72;5087302;27;45283;-38
2022/09/24 07:44:11;;;;;;;;;13.25;9.25;;;;;17.21;57.11;100623.56;5095429;27;45285;-38
2022/09/24 07:46:36;;;;;;;;;10.00;9.00;;;;;17.23;56.20;100636.69;5096188;27;45719;-38
2022/09/24 07:49:02;;;;;;;;;11.75;10.25;;;;;17.23;56.47;100634.88;5092332;27;46069;-38
2022/09/24 07:51:27;;;;;;;;;13.00;10.00;;;;;17.23;56.68;100637.53;5093935;27;45244;-38
2022/09/24 07:53:57;;;;;;;;;9.50;8.50;;;;;17.25;57.10;100637.44;5092123;27;45351;-38
2022/09/24 07:56:23;;;;;;;;;12.75;9.25;;;;;17.25;56.84;100642.75;5092726;27;45491;-38
2022/09/24 07:58:52;;;;;;;;;16.25;11.75;;;;;17.26;56.88;100641.78;5089194;27;45295;-38
2022/09/24 08:01:18;;;;;;;;;10.25;8.25;;;;;17.29;56.85;100638.13;5092796;27;45829;-38
2022/09/24 08:03:45;;;;;;;;;10.75;8.00;;;;;17.31;56.73;100639.75;5099579;27;45362;-38
2022/09/24 08:06:11;;;;;;;;;11.50;9.25;;;;;17.31;56.77;100638.91;5090570;27;45999;-38
2022/09/24 08:08:37;;;;;;;;;13.75;9.25;;;;;17.30;56.62;100648.63;5090536;27;47456;-38
2022/09/24 08:11:07;;;;;;;;;9.75;8.25;;;;;17.32;57.09;100645.91;5086998;27;45716;-38
2022/09/24 08:13:33;;;;;;;;;10.25;8.25;;;;;17.33;56.79;100648.44;5091808;27;45470;-38
2022/09/24 08:15:59;;;;;;;;;9.50;9.25;;;;;17.35;57.28;100648.34;5093841;27;45309;-38
2022/09/24 08:18:24;;;;;;;;;9.50;8.25;;;;;17.37;56.83;100649.97;5099061;27;46129;-38
2022/09/24 08:20:50;;;;;;;;;9.75;7.75;;;;;17.36;57.30;100653.56;5098867;27;45166;-38
2022/09/24 08:23:15;;;;;;;;;13.75;9.50;;;;;17.39;56.84;100652.56;5091029;27;45342;-38
2022/09/24 08:25:40;;;;;;;;;11.50;10.25;;;;;17.39;57.24;100649.91;5091301;27;71817;-39
2022/09/24 08:28:07;;;;;;;;;10.25;9.75;;;;;17.41;56.86;100650.66;5101793;27;71382;-39
2022/09/24 08:30:34;;;;;;;;;13.75;10.25;;;;;17.42;57.14;100655.88;5093314;27;45295;-38
2022/09/24 08:33:00;;;;;;;;;15.00;11.00;;;;;17.40;57.11;100651.59;5084338;27;45508;-39
2022/09/24 08:35:25;;;;;;;;;10.25;9.00;;;;;17.42;57.05;100655.88;5095780;27;45340;-38
2022/09/24 08:37:53;;;;;;;;;12.25;10.00;;;;;17.42;56.85;100660.28;5097187;27;66882;-39
2022/09/24 08:40:22;;;;;;;;;16.50;11.00;;;;;17.40;57.21;100662.16;5088783;27;45410;-39
2022/09/24 08:43:01;;;;;;;;;11.00;10.00;;;;;17.40;56.96;100668.31;5073624;27;45246;-38
2022/09/24 08:48:20;;;;;;;;;12.75;11.50;;;;;17.37;56.89;100663.22;5097207;27;45421;-38
2022/09/24 08:51:00;;;;;;;;;26.00;18.00;;;;;17.38;57.31;100672.84;5100574;27;45886;-38
2022/09/24 08:53:50;;;;;;;;;18.25;15.00;;;;;17.38;57.00;100675.47;5097583;27;45280;-40
2022/09/24 08:56:21;;;;;;;;;17.50;15.25;;;;;17.37;56.99;100679.09;5097288;27;45369;-39
2022/09/24 08:58:55;;;;;;;;;18.25;14.50;;;;;17.35;56.94;100678.31;5106601;27;46126;-39
2022/09/24 09:02:06;;;;;;;;;20.50;15.00;;;;;17.35;57.44;100677.44;5090264;27;45271;-37
2022/09/24 09:04:41;;;;;;;;;17.25;13.25;;;;;17.32;57.49;100677.63;5090436;27;45600;-37
2022/09/24 09:07:15;;;;;;;;;16.75;14.00;;;;;17.29;57.20;100678.66;5101988;27;45459;-37
2022/09/24 09:09:49;;;;;;;;;21.00;15.50;;;;;17.27;57.84;100675.25;5097114;27;46713;-38
2022/09/24 09:12:38;;;;;;;;;21.50;14.00;;;;;17.27;57.68;100686.66;5096930;27;45438;-38
2022/09/24 09:15:13;;;;;;;;;21.00;19.00;;;;;17.27;57.81;100683.19;5086162;27;45330;-38
2022/09/24 09:17:44;;;;;;;;;22.00;16.00;;;;;17.26;57.46;100686.75;5097143;27;45405;-38
2022/09/24 09:20:15;;;;;;;;;19.25;16.50;;;;;17.25;57.69;100679.78;5091284;27;45394;-39
2022/09/24 09:22:52;;;;;;;;;18.00;15.00;;;;;17.23;57.26;100676.38;5097389;27;45430;-39
2022/09/24 09:25:23;;;;;;;;;17.50;11.75;;;;;17.22;57.22;100678.13;5089824;27;45449;-39
2022/09/24 09:27:56;;;;;;;;;13.75;12.25;;;;;17.24;57.66;100681.53;5087447;27;45326;-39
2022/09/24 09:30:21;;;;;;;;;15.75;13.00;;;;;17.25;57.64;100677.13;5092892;27;46190;-40
2022/09/24 09:33:13;;;;;;;;;16.75;15.75;;;;;17.24;57.25;100684.19;5096224;27;68038;-39
2022/09/24 09:36:02;;;;;;;;;16.00;14.75;;;;;17.26;57.42;100681.47;5098061;27;45255;-39
2022/09/24 09:39:09;;;;;;;;;16.00;13.25;;;;;17.27;57.33;100678.72;5087341;27;45382;-39
2022/09/24 09:41:40;;;;;;;;;15.25;13.75;;;;;17.30;57.50;100683.00;5097724;27;45367;-39
2022/09/24 09:44:11;;;;;;;;;20.75;18.50;;;;;17.32;57.65;100685.56;5113254;27;45324;-39
2022/09/24 09:46:42;;;;;;;;;19.50;15.75;;;;;17.32;57.98;100691.72;5096075;27;45506;-40
2022/09/24 09:49:07;;;;;;;;;16.00;15.00;;;;;17.33;57.78;100690.75;5098611;27;45401;-39
2022/09/24 09:51:38;;;;;;;;;21.00;18.00;;;;;17.34;57.67;100688.97;5099438;27;48098;-39
2022/09/24 09:54:04;;;;;;;;;19.25;18.25;;;;;17.35;57.78;100688.03;5100972;27;45219;-39
2022/09/24 09:56:36;;;;;;;;;26.00;18.25;;;;;17.34;57.64;100684.53;5100851;27;45436;-39
2022/09/24 09:59:27;;;;;;;;;18.25;16.00;;;;;17.37;57.35;100681.72;5101625;27;45192;-39
2022/09/24 10:01:55;;;;;;;;;27.25;18.50;;;;;17.38;57.01;100686.06;5095868;27;63600;-39
2022/09/24 10:04:28;;;;;;;;;17.00;14.75;;;;;17.39;56.76;100685.13;5100117;27;45385;-39
2022/09/24 10:07:04;;;;;;;;;17.75;16.50;;;;;17.39;56.92;100690.44;5101284;27;45302;-39
2022/09/24 10:09:30;;;;;;;;;26.50;19.75;;;;;17.41;57.22;100688.53;5101321;27;45238;-39
2022/09/24 10:12:25;;;;;;;;;22.75;20.75;;;;;17.43;57.46;100681.38;5098675;27;46099;-39
2022/09/24 10:14:59;;;;;;;;;40.50;32.25;;;;;17.47;57.08;100687.34;5100349;27;45365;-39
2022/09/24 10:17:28;;;;;;;;;23.50;21.00;;;;;17.51;57.04;100680.94;5101232;27;45376;-39
2022/09/24 10:19:54;;;;;;;;;23.75;20.50;;;;;17.55;56.99;100681.63;5099979;27;45335;-39
2022/09/24 10:22:22;;;;;;;;;20.50;16.75;;;;;17.59;56.75;100680.50;5100176;27;71220;-39
2022/09/24 10:24:49;;;;;;;;;21.25;20.25;;;;;17.63;56.65;100685.50;5083509;27;45431;-39
2022/09/24 10:27:33;;;;;;;;;20.25;18.50;;;;;17.68;56.80;100682.63;5098878;27;45358;-39
2022/09/24 10:30:33;;;;;;;;;21.25;19.25;;;;;17.75;56.75;100681.31;5095199;27;45429;-39
2022/09/24 10:33:01;;;;;;;;;23.50;19.25;;;;;17.82;56.39;100680.03;5112854;27;46803;-38
2022/09/24 10:35:30;;;;;;;;;49.25;35.25;;;;;17.89;56.40;100680.56;5092816;27;45319;-39
2022/09/24 10:37:57;;;;;;;;;24.50;22.00;;;;;17.95;56.45;100677.53;5100027;27;45189;-39
2022/09/24 10:40:29;;;;;;;;;22.75;21.00;;;;;18.01;56.22;100684.28;5100507;27;45245;-39
2022/09/24 10:42:57;;;;;;;;;23.50;21.25;;;;;18.08;55.95;100682.09;5098600;27;45297;-39
2022/09/24 10:45:30;;;;;;;;;21.75;18.75;;;;;18.15;55.98;100675.50;5080665;27;45967;-39
2022/09/24 10:48:07;;;;;;;;;22.25;21.25;;;;;18.21;56.05;100689.22;5096999;27;45226;-39
2022/09/24 10:50:54;;;;;;;;;21.50;16.25;;;;;18.27;55.65;100674.75;5094359;27;45363;-39
2022/09/24 10:53:28;;;;;;;;;20.25;16.25;;;;;18.29;55.53;100686.16;5079078;27;46061;-39
2022/09/24 10:56:05;;;;;;;;;22.00;17.50;;;;;18.31;55.46;100678.06;5113399;27;45940;-39
2022/09/24 10:59:06;;;;;;;;;21.00;17.50;;;;;18.31;55.46;100678.94;5089421;27;45401;-39
2022/09/24 11:02:14;;;;;;;;;20.25;19.00;;;;;18.34;55.59;100680.53;5072218;27;45359;-37
2022/09/24 11:04:50;;;;;;;;;25.75;20.25;;;;;18.37;55.30;100677.72;5100323;27;45412;-38
2022/09/24 11:07:38;;;;;;;;;19.50;18.50;;;;;18.42;55.40;100680.09;5099686;27;47088;-38
2022/09/24 11:10:21;;;;;;;;;20.25;18.50;;;;;18.48;55.25;100679.72;5098711;27;45575;-38
2022/09/24 11:12:53;;;;;;;;;24.25;18.00;;;;;18.50;54.99;100685.78;5086875;27;45482;-38
2022/09/24 11:15:27;;;;;;;;;24.25;20.75;;;;;18.51;54.97;100677.72;5098910;27;45543;-38
2022/09/24 11:18:02;;;;;;;;;24.25;21.25;;;;;18.55;54.75;100681.03;5103954;27;45403;-38
2022/09/24 11:20:36;;;;;;;;;22.50;22.00;;;;;18.58;54.73;100687.00;5098834;27;45398;-38
2022/09/24 11:23:01;;;;;;;;;25.50;19.00;;;;;18.59;54.32;100685.19;5098752;27;45269;-38
2022/09/24 11:25:27;;;;;;;;;21.67;19.00;;;;;18.60;54.40;100678.97;5098704;27;45243;-39
2022/09/24 11:27:55;;;;;;;;;44.50;35.50;;;;;18.62;54.44;100671.75;5091908;27;45270;-39
2022/09/24 11:30:24;;;;;;;;;28.50;23.50;;;;;18.65;54.34;100676.88;5096690;27;45260;-39